sensor_id;sensor_type;location;lat;lon;timestamp;temperature;humidity
6536;DHT22;34330;52.08032700;5.40923460;2023-06-22T00:00:38;23.90;63.80
6536;DHT22;34330;52.08032700;5.40923460;2023-06-22T00:03:09;23.70;65.30
6536;DHT22;34330;52.08032700;5.40923460;2023-06-22T00:05:37;23.70;65.10
6536;DHT22;34330;52.08032700;5.40923460;2023-06-22T00:08:05;23.70;65.10
6536;DHT22;34330;52.08032700;5.40923460;2023-06-22T00:10:33;23.60;64.80
6536;DHT22;34330;52.08032700;5.40923460;2023-06-22T00:13:01;23.60;64.90
6536;DHT22;34330;52.08032700;5.40923460;2023-06-22T00:15:29;23.60;64.80
6536;DHT22;34330;52.08032700;5.40923460;2023-06-22T00:17:58;23.60;64.90
6536;DHT22;34330;52.08032700;5.40923460;2023-06-22T00:20:27;23.50;65.10
6536;DHT22;34330;52.08032700;5.40923460;2023-06-22T00:22:58;22.50;63.80
6536;DHT22;34330;52.08032700;5.40923460;2023-06-22T00:25:26;23.50;65.20
6536;DHT22;34330;52.08032700;5.40923460;2023-06-22T00:27:54;23.40;65.30
6536;DHT22;34330;52.08032700;5.40923460;2023-06-22T00:30:22;23.40;65.40
6536;DHT22;34330;52.08032700;5.40923460;2023-06-22T00:32:50;23.40;65.60
6536;DHT22;34330;52.08032700;5.40923460;2023-06-22T00:35:19;23.30;65.50
6536;DHT22;34330;52.08032700;5.40923460;2023-06-22T00:37:48;22.60;65.40
6536;DHT22;34330;52.08032700;5.40923460;2023-06-22T00:40:16;23.20;66.10
6536;DHT22;34330;52.08032700;5.40923460;2023-06-22T00:42:48;23.20;66.10
6536;DHT22;34330;52.08032700;5.40923460;2023-06-22T00:45:16;23.20;66.50
6536;DHT22;34330;52.08032700;5.40923460;2023-06-22T00:47:44;23.00;68.10
6536;DHT22;34330;52.08032700;5.40923460;2023-06-22T00:50:20;23.00;67.90
6536;DHT22;34330;52.08032700;5.40923460;2023-06-22T00:52:51;23.00;68.20
6536;DHT22;34330;52.08032700;5.40923460;2023-06-22T00:55:20;23.00;67.90
6536;DHT22;34330;52.08032700;5.40923460;2023-06-22T00:57:49;23.00;67.60
6536;DHT22;34330;52.08032700;5.40923460;2023-06-22T01:00:18;22.90;67.30
6536;DHT22;34330;52.08032700;5.40923460;2023-06-22T01:02:48;22.90;67.40
6536;DHT22;34330;52.08032700;5.40923460;2023-06-22T01:05:20;22.70;66.80
6536;DHT22;34330;52.08032700;5.40923460;2023-06-22T01:07:57;22.90;67.30
6536;DHT22;34330;52.08032700;5.40923460;2023-06-22T01:10:34;22.80;67.90
6536;DHT22;34330;52.08032700;5.40923460;2023-06-22T01:13:07;22.70;67.70
6536;DHT22;34330;52.08032700;5.40923460;2023-06-22T01:15:43;22.70;67.60
6536;DHT22;34330;52.08032700;5.40923460;2023-06-22T01:18:18;22.60;68.00
6536;DHT22;34330;52.08032700;5.40923460;2023-06-22T01:20:48;22.60;67.90
6536;DHT22;34330;52.08032700;5.40923460;2023-06-22T01:23:27;22.50;67.90
6536;DHT22;34330;52.08032700;5.40923460;2023-06-22T01:26:02;22.50;68.40
6536;DHT22;34330;52.08032700;5.40923460;2023-06-22T01:28:41;22.50;68.20
6536;DHT22;34330;52.08032700;5.40923460;2023-06-22T01:31:12;22.30;69.80
6536;DHT22;34330;52.08032700;5.40923460;2023-06-22T01:33:43;22.30;69.30
6536;DHT22;34330;52.08032700;5.40923460;2023-06-22T01:36:12;22.30;69.10
6536;DHT22;34330;52.08032700;5.40923460;2023-06-22T01:38:42;22.40;69.00
6536;DHT22;34330;52.08032700;5.40923460;2023-06-22T01:41:11;22.30;68.80
6536;DHT22;34330;52.08032700;5.40923460;2023-06-22T01:43:41;22.20;68.80
6536;DHT22;34330;52.08032700;5.40923460;2023-06-22T01:46:10;22.20;69.00
6536;DHT22;34330;52.08032700;5.40923460;2023-06-22T01:48:40;22.10;68.90
6536;DHT22;34330;52.08032700;5.40923460;2023-06-22T01:51:08;22.10;69.00
6536;DHT22;34330;52.08032700;5.40923460;2023-06-22T01:53:36;22.10;69.00
6536;DHT22;34330;52.08032700;5.40923460;2023-06-22T01:56:04;22.10;69.10
6536;DHT22;34330;52.08032700;5.40923460;2023-06-22T01:58:32;22.00;69.00
6536;DHT22;34330;52.08032700;5.40923460;2023-06-22T02:01:09;22.00;69.10
6536;DHT22;34330;52.08032700;5.40923460;2023-06-22T02:03:41;22.00;69.50
6536;DHT22;34330;52.08032700;5.40923460;2023-06-22T02:06:16;21.90;69.40
6536;DHT22;34330;52.08032700;5.40923460;2023-06-22T02:08:48;21.90;69.60
6536;DHT22;34330;52.08032700;5.40923460;2023-06-22T02:11:19;21.80;69.50
6536;DHT22;34330;52.08032700;5.40923460;2023-06-22T02:13:48;21.80;69.60
6536;DHT22;34330;52.08032700;5.40923460;2023-06-22T02:16:19;21.70;69.40
6536;DHT22;34330;52.08032700;5.40923460;2023-06-22T02:18:48;21.70;69.90
6536;DHT22;34330;52.08032700;5.40923460;2023-06-22T02:21:18;21.60;69.90
6536;DHT22;34330;52.08032700;5.40923460;2023-06-22T02:23:46;21.60;70.00
6536;DHT22;34330;52.08032700;5.40923460;2023-06-22T02:26:17;21.60;69.90
6536;DHT22;34330;52.08032700;5.40923460;2023-06-22T02:28:45;21.50;70.10
6536;DHT22;34330;52.08032700;5.40923460;2023-06-22T02:31:14;21.50;69.80
6536;DHT22;34330;52.08032700;5.40923460;2023-06-22T02:33:44;21.50;70.00
6536;DHT22;34330;52.08032700;5.40923460;2023-06-22T02:36:13;21.40;70.10
6536;DHT22;34330;52.08032700;5.40923460;2023-06-22T02:38:42;21.40;70.00
6536;DHT22;34330;52.08032700;5.40923460;2023-06-22T02:41:15;21.40;70.10
6536;DHT22;34330;52.08032700;5.40923460;2023-06-22T02:43:45;21.30;70.20
6536;DHT22;34330;52.08032700;5.40923460;2023-06-22T02:46:14;21.30;70.30
6536;DHT22;34330;52.08032700;5.40923460;2023-06-22T02:48:43;21.20;70.30
6536;DHT22;34330;52.08032700;5.40923460;2023-06-22T02:51:13;21.20;70.60
6536;DHT22;34330;52.08032700;5.40923460;2023-06-22T02:53:41;21.20;70.50
6536;DHT22;34330;52.08032700;5.40923460;2023-06-22T02:56:11;21.10;70.40
6536;DHT22;34330;52.08032700;5.40923460;2023-06-22T02:58:39;21.10;70.60
6536;DHT22;34330;52.08032700;5.40923460;2023-06-22T03:01:08;21.10;72.00
6536;DHT22;34330;52.08032700;5.40923460;2023-06-22T03:03:39;21.00;72.00
6536;DHT22;34330;52.08032700;5.40923460;2023-06-22T03:06:09;20.90;71.80
6536;DHT22;34330;52.08032700;5.40923460;2023-06-22T03:08:41;21.00;72.10
6536;DHT22;34330;52.08032700;5.40923460;2023-06-22T03:11:09;20.90;71.70
6536;DHT22;34330;52.08032700;5.40923460;2023-06-22T03:13:37;20.90;72.20
6536;DHT22;34330;52.08032700;5.40923460;2023-06-22T03:16:05;20.90;71.60
6536;DHT22;34330;52.08032700;5.40923460;2023-06-22T03:18:33;20.90;71.50
6536;DHT22;34330;52.08032700;5.40923460;2023-06-22T03:21:01;20.90;71.40
6536;DHT22;34330;52.08032700;5.40923460;2023-06-22T03:23:30;20.90;71.50
6536;DHT22;34330;52.08032700;5.40923460;2023-06-22T03:25:58;20.80;71.60
6536;DHT22;34330;52.08032700;5.40923460;2023-06-22T03:28:26;20.80;71.50
6536;DHT22;34330;52.08032700;5.40923460;2023-06-22T03:30:57;20.80;71.60
6536;DHT22;34330;52.08032700;5.40923460;2023-06-22T03:33:25;20.70;72.00
6536;DHT22;34330;52.08032700;5.40923460;2023-06-22T03:35:53;20.70;71.90
6536;DHT22;34330;52.08032700;5.40923460;2023-06-22T03:38:21;20.70;72.20
6536;DHT22;34330;52.08032700;5.40923460;2023-06-22T03:40:50;18.70;70.10
6536;DHT22;34330;52.08032700;5.40923460;2023-06-22T03:43:18;20.70;72.70
6536;DHT22;34330;52.08032700;5.40923460;2023-06-22T03:45:46;20.70;72.80
6536;DHT22;34330;52.08032700;5.40923460;2023-06-22T03:48:14;20.60;72.80
6536;DHT22;34330;52.08032700;5.40923460;2023-06-22T03:50:43;20.50;74.70
6536;DHT22;34330;52.08032700;5.40923460;2023-06-22T03:53:11;20.50;74.60
6536;DHT22;34330;52.08032700;5.40923460;2023-06-22T03:55:50;20.50;74.30
6536;DHT22;34330;52.08032700;5.40923460;2023-06-22T03:58:18;20.50;74.80
6536;DHT22;34330;52.08032700;5.40923460;2023-06-22T04:00:46;20.50;74.10
6536;DHT22;34330;52.08032700;5.40923460;2023-06-22T04:03:16;20.50;73.90
6536;DHT22;34330;52.08032700;5.40923460;2023-06-22T04:05:45;20.50;73.90
6536;DHT22;34330;52.08032700;5.40923460;2023-06-22T04:08:15;20.50;74.00
6536;DHT22;34330;52.08032700;5.40923460;2023-06-22T04:10:44;20.50;74.10
6536;DHT22;34330;52.08032700;5.40923460;2023-06-22T04:13:13;20.50;74.00
6536;DHT22;34330;52.08032700;5.40923460;2023-06-22T04:15:41;20.50;74.30
6536;DHT22;34330;52.08032700;5.40923460;2023-06-22T04:18:09;20.50;74.30
6536;DHT22;34330;52.08032700;5.40923460;2023-06-22T04:20:37;20.50;74.50
6536;DHT22;34330;52.08032700;5.40923460;2023-06-22T04:23:05;20.50;75.40
6536;DHT22;34330;52.08032700;5.40923460;2023-06-22T04:25:34;20.50;74.80
6536;DHT22;34330;52.08032700;5.40923460;2023-06-22T04:28:02;20.50;75.00
6536;DHT22;34330;52.08032700;5.40923460;2023-06-22T04:30:33;20.50;75.20
6536;DHT22;34330;52.08032700;5.40923460;2023-06-22T04:33:01;20.60;75.50
6536;DHT22;34330;52.08032700;5.40923460;2023-06-22T04:35:29;20.60;75.50
6536;DHT22;34330;52.08032700;5.40923460;2023-06-22T04:37:58;20.60;75.60
6536;DHT22;34330;52.08032700;5.40923460;2023-06-22T04:40:26;20.60;75.90
6536;DHT22;34330;52.08032700;5.40923460;2023-06-22T04:42:54;20.60;76.10
6536;DHT22;34330;52.08032700;5.40923460;2023-06-22T04:45:22;20.70;76.40
6536;DHT22;34330;52.08032700;5.40923460;2023-06-22T04:47:52;20.70;76.60
6536;DHT22;34330;52.08032700;5.40923460;2023-06-22T04:50:20;20.80;77.20
6536;DHT22;34330;52.08032700;5.40923460;2023-06-22T04:52:50;20.80;77.50
6536;DHT22;34330;52.08032700;5.40923460;2023-06-22T04:55:20;20.80;77.60
6536;DHT22;34330;52.08032700;5.40923460;2023-06-22T04:57:48;20.90;78.10
6536;DHT22;34330;52.08032700;5.40923460;2023-06-22T05:00:18;21.00;78.20
6536;DHT22;34330;52.08032700;5.40923460;2023-06-22T05:02:47;21.00;78.40
6536;DHT22;34330;52.08032700;5.40923460;2023-06-22T05:05:18;21.10;78.30
6536;DHT22;34330;52.08032700;5.40923460;2023-06-22T05:07:46;21.10;78.60
6536;DHT22;34330;52.08032700;5.40923460;2023-06-22T05:10:17;21.10;78.30
6536;DHT22;34330;52.08032700;5.40923460;2023-06-22T05:12:46;21.20;78.30
6536;DHT22;34330;52.08032700;5.40923460;2023-06-22T05:15:15;21.30;78.50
6536;DHT22;34330;52.08032700;5.40923460;2023-06-22T05:17:43;21.30;78.40
6536;DHT22;34330;52.08032700;5.40923460;2023-06-22T05:20:13;20.90;78.10
6536;DHT22;34330;52.08032700;5.40923460;2023-06-22T05:22:46;21.40;78.50
6536;DHT22;34330;52.08032700;5.40923460;2023-06-22T05:25:15;21.50;79.00
6536;DHT22;34330;52.08032700;5.40923460;2023-06-22T05:27:43;21.50;78.80
6536;DHT22;34330;52.08032700;5.40923460;2023-06-22T05:30:11;21.60;79.00
6536;DHT22;34330;52.08032700;5.40923460;2023-06-22T05:32:39;21.60;79.10
6536;DHT22;34330;52.08032700;5.40923460;2023-06-22T05:35:08;21.70;79.40
6536;DHT22;34330;52.08032700;5.40923460;2023-06-22T05:37:36;21.70;79.70
6536;DHT22;34330;52.08032700;5.40923460;2023-06-22T05:40:08;21.80;79.70
6536;DHT22;34330;52.08032700;5.40923460;2023-06-22T05:42:36;21.80;80.00
6536;DHT22;34330;52.08032700;5.40923460;2023-06-22T05:45:05;22.00;80.30
6536;DHT22;34330;52.08032700;5.40923460;2023-06-22T05:47:34;22.10;80.70
6536;DHT22;34330;52.08032700;5.40923460;2023-06-22T05:50:03;22.10;80.20
6536;DHT22;34330;52.08032700;5.40923460;2023-06-22T05:52:33;22.20;80.60
6536;DHT22;34330;52.08032700;5.40923460;2023-06-22T05:55:02;22.30;81.30
6536;DHT22;34330;52.08032700;5.40923460;2023-06-22T05:57:31;22.40;80.70
6536;DHT22;34330;52.08032700;5.40923460;2023-06-22T05:59:59;22.50;81.10
6536;DHT22;34330;52.08032700;5.40923460;2023-06-22T06:02:27;22.60;81.00
6536;DHT22;34330;52.08032700;5.40923460;2023-06-22T06:04:56;22.70;80.90
6536;DHT22;34330;52.08032700;5.40923460;2023-06-22T06:07:24;22.80;81.10
6536;DHT22;34330;52.08032700;5.40923460;2023-06-22T06:09:52;22.90;81.10
6536;DHT22;34330;52.08032700;5.40923460;2023-06-22T06:12:20;23.00;81.00
6536;DHT22;34330;52.08032700;5.40923460;2023-06-22T06:14:49;23.10;80.90
6536;DHT22;34330;52.08032700;5.40923460;2023-06-22T06:17:18;23.30;81.10
6536;DHT22;34330;52.08032700;5.40923460;2023-06-22T06:19:46;23.40;81.10
6536;DHT22;34330;52.08032700;5.40923460;2023-06-22T06:22:14;23.50;80.80
6536;DHT22;34330;52.08032700;5.40923460;2023-06-22T06:24:42;23.60;80.70
6536;DHT22;34330;52.08032700;5.40923460;2023-06-22T06:27:10;23.70;80.70
6536;DHT22;34330;52.08032700;5.40923460;2023-06-22T06:29:38;23.80;80.50
6536;DHT22;34330;52.08032700;5.40923460;2023-06-22T06:32:08;23.90;80.20
6536;DHT22;34330;52.08032700;5.40923460;2023-06-22T06:34:36;24.00;80.30
6536;DHT22;34330;52.08032700;5.40923460;2023-06-22T06:37:04;24.10;80.00
6536;DHT22;34330;52.08032700;5.40923460;2023-06-22T06:39:33;24.10;79.80
6536;DHT22;34330;52.08032700;5.40923460;2023-06-22T06:42:01;24.20;79.80
6536;DHT22;34330;52.08032700;5.40923460;2023-06-22T06:44:29;24.30;79.70
6536;DHT22;34330;52.08032700;5.40923460;2023-06-22T06:46:57;24.40;79.60
6536;DHT22;34330;52.08032700;5.40923460;2023-06-22T06:49:26;24.50;79.40
6536;DHT22;34330;52.08032700;5.40923460;2023-06-22T06:51:54;24.60;80.20
6536;DHT22;34330;52.08032700;5.40923460;2023-06-22T06:54:22;24.70;79.10
6536;DHT22;34330;52.08032700;5.40923460;2023-06-22T06:56:50;24.70;79.00
6536;DHT22;34330;52.08032700;5.40923460;2023-06-22T06:59:18;24.80;78.80
6536;DHT22;34330;52.08032700;5.40923460;2023-06-22T07:01:47;24.80;78.50
6536;DHT22;34330;52.08032700;5.40923460;2023-06-22T07:04:15;24.90;78.20
6536;DHT22;34330;52.08032700;5.40923460;2023-06-22T07:06:45;25.00;78.10
6536;DHT22;34330;52.08032700;5.40923460;2023-06-22T07:09:16;25.00;77.90
6536;DHT22;34330;52.08032700;5.40923460;2023-06-22T07:11:45;25.10;78.00
6536;DHT22;34330;52.08032700;5.40923460;2023-06-22T07:14:13;25.40;77.70
6536;DHT22;34330;52.08032700;5.40923460;2023-06-22T07:16:41;25.20;77.50
6536;DHT22;34330;52.08032700;5.40923460;2023-06-22T07:19:11;25.30;77.00
6536;DHT22;34330;52.08032700;5.40923460;2023-06-22T07:21:56;25.40;77.00
6536;DHT22;34330;52.08032700;5.40923460;2023-06-22T07:24:24;25.60;76.70
6536;DHT22;34330;52.08032700;5.40923460;2023-06-22T07:26:53;25.60;76.50
6536;DHT22;34330;52.08032700;5.40923460;2023-06-22T07:29:21;25.70;75.40
6536;DHT22;34330;52.08032700;5.40923460;2023-06-22T07:31:50;25.80;74.80
6536;DHT22;34330;52.08032700;5.40923460;2023-06-22T07:34:19;25.90;74.20
6536;DHT22;34330;52.08032700;5.40923460;2023-06-22T07:36:48;25.90;73.70
6536;DHT22;34330;52.08032700;5.40923460;2023-06-22T07:39:17;26.00;73.50
6536;DHT22;34330;52.08032700;5.40923460;2023-06-22T07:41:45;26.10;73.30
6536;DHT22;34330;52.08032700;5.40923460;2023-06-22T07:44:14;26.10;73.70
6536;DHT22;34330;52.08032700;5.40923460;2023-06-22T07:46:42;26.20;72.40
6536;DHT22;34330;52.08032700;5.40923460;2023-06-22T07:49:10;26.20;72.40
6536;DHT22;34330;52.08032700;5.40923460;2023-06-22T07:51:38;26.30;72.80
6536;DHT22;34330;52.08032700;5.40923460;2023-06-22T07:54:06;26.30;72.00
6536;DHT22;34330;52.08032700;5.40923460;2023-06-22T07:56:36;26.40;72.20
6536;DHT22;34330;52.08032700;5.40923460;2023-06-22T07:59:04;26.40;71.90
6536;DHT22;34330;52.08032700;5.40923460;2023-06-22T08:01:33;26.50;71.60
6536;DHT22;34330;52.08032700;5.40923460;2023-06-22T08:04:05;26.50;71.50
6536;DHT22;34330;52.08032700;5.40923460;2023-06-22T08:06:33;26.60;71.50
6536;DHT22;34330;52.08032700;5.40923460;2023-06-22T08:09:01;26.60;70.80
6536;DHT22;34330;52.08032700;5.40923460;2023-06-22T08:11:30;26.70;70.80
6536;DHT22;34330;52.08032700;5.40923460;2023-06-22T08:13:59;26.70;70.20
6536;DHT22;34330;52.08032700;5.40923460;2023-06-22T08:16:27;26.80;70.20
6536;DHT22;34330;52.08032700;5.40923460;2023-06-22T08:18:55;26.90;69.80
6536;DHT22;34330;52.08032700;5.40923460;2023-06-22T08:21:24;26.90;69.50
6536;DHT22;34330;52.08032700;5.40923460;2023-06-22T08:23:52;27.00;69.60
6536;DHT22;34330;52.08032700;5.40923460;2023-06-22T08:26:20;27.10;69.20
6536;DHT22;34330;52.08032700;5.40923460;2023-06-22T08:28:48;27.20;68.30
6536;DHT22;34330;52.08032700;5.40923460;2023-06-22T08:31:18;27.20;67.70
6536;DHT22;34330;52.08032700;5.40923460;2023-06-22T08:33:47;27.30;67.60
6536;DHT22;34330;52.08032700;5.40923460;2023-06-22T08:36:16;27.40;66.70
6536;DHT22;34330;52.08032700;5.40923460;2023-06-22T08:38:44;27.40;66.30
6536;DHT22;34330;52.08032700;5.40923460;2023-06-22T08:41:17;27.50;65.50
6536;DHT22;34330;52.08032700;5.40923460;2023-06-22T08:43:45;27.60;65.30
6536;DHT22;34330;52.08032700;5.40923460;2023-06-22T08:46:13;27.60;65.80
6536;DHT22;34330;52.08032700;5.40923460;2023-06-22T08:48:48;27.80;65.90
6536;DHT22;34330;52.08032700;5.40923460;2023-06-22T08:51:17;28.00;65.50
6536;DHT22;34330;52.08032700;5.40923460;2023-06-22T08:53:45;27.90;65.10
6536;DHT22;34330;52.08032700;5.40923460;2023-06-22T08:56:13;28.00;65.00
6536;DHT22;34330;52.08032700;5.40923460;2023-06-22T08:58:41;28.10;64.40
6536;DHT22;34330;52.08032700;5.40923460;2023-06-22T09:01:09;28.10;63.60
6536;DHT22;34330;52.08032700;5.40923460;2023-06-22T09:03:37;28.20;63.30
6536;DHT22;34330;52.08032700;5.40923460;2023-06-22T09:06:06;28.30;62.80
6536;DHT22;34330;52.08032700;5.40923460;2023-06-22T09:08:36;28.40;62.20
6536;DHT22;34330;52.08032700;5.40923460;2023-06-22T09:11:04;28.50;62.10
6536;DHT22;34330;52.08032700;5.40923460;2023-06-22T09:13:33;28.50;61.80
6536;DHT22;34330;52.08032700;5.40923460;2023-06-22T09:16:01;28.60;61.50
6536;DHT22;34330;52.08032700;5.40923460;2023-06-22T09:18:29;28.70;61.30
6536;DHT22;34330;52.08032700;5.40923460;2023-06-22T09:20:57;28.90;60.90
6536;DHT22;34330;52.08032700;5.40923460;2023-06-22T09:23:26;28.80;60.80
6536;DHT22;34330;52.08032700;5.40923460;2023-06-22T09:25:54;28.80;59.60
6536;DHT22;34330;52.08032700;5.40923460;2023-06-22T09:28:22;28.90;59.10
6536;DHT22;34330;52.08032700;5.40923460;2023-06-22T09:30:50;28.90;59.50
6536;DHT22;34330;52.08032700;5.40923460;2023-06-22T09:33:25;29.00;58.90
6536;DHT22;34330;52.08032700;5.40923460;2023-06-22T09:35:53;29.10;57.80
6536;DHT22;34330;52.08032700;5.40923460;2023-06-22T09:38:21;29.20;57.30
6536;DHT22;34330;52.08032700;5.40923460;2023-06-22T09:40:50;29.30;56.90
6536;DHT22;34330;52.08032700;5.40923460;2023-06-22T09:43:21;29.30;55.00
6536;DHT22;34330;52.08032700;5.40923460;2023-06-22T09:45:49;29.40;56.30
6536;DHT22;34330;52.08032700;5.40923460;2023-06-22T09:48:17;29.40;56.50
6536;DHT22;34330;52.08032700;5.40923460;2023-06-22T09:50:45;29.50;55.50
6536;DHT22;34330;52.08032700;5.40923460;2023-06-22T09:53:14;29.60;55.80
6536;DHT22;34330;52.08032700;5.40923460;2023-06-22T09:55:45;29.70;55.90
6536;DHT22;34330;52.08032700;5.40923460;2023-06-22T09:58:15;29.80;55.30
6536;DHT22;34330;52.08032700;5.40923460;2023-06-22T10:00:43;29.80;55.40
6536;DHT22;34330;52.08032700;5.40923460;2023-06-22T10:03:11;29.80;55.10
6536;DHT22;34330;52.08032700;5.40923460;2023-06-22T10:05:39;29.80;54.50
6536;DHT22;34330;52.08032700;5.40923460;2023-06-22T10:08:08;29.70;54.70
6536;DHT22;34330;52.08032700;5.40923460;2023-06-22T10:10:36;29.70;54.30
6536;DHT22;34330;52.08032700;5.40923460;2023-06-22T10:13:09;29.70;54.00
6536;DHT22;34330;52.08032700;5.40923460;2023-06-22T10:15:39;29.60;53.70
6536;DHT22;34330;52.08032700;5.40923460;2023-06-22T10:18:08;29.50;54.00
6536;DHT22;34330;52.08032700;5.40923460;2023-06-22T10:20:36;30.00;54.70
6536;DHT22;34330;52.08032700;5.40923460;2023-06-22T10:23:04;29.40;53.90
6536;DHT22;34330;52.08032700;5.40923460;2023-06-22T10:25:32;29.30;54.40
6536;DHT22;34330;52.08032700;5.40923460;2023-06-22T10:28:00;29.30;53.80
6536;DHT22;34330;52.08032700;5.40923460;2023-06-22T10:30:28;29.20;53.50
6536;DHT22;34330;52.08032700;5.40923460;2023-06-22T10:32:58;29.10;53.20
6536;DHT22;34330;52.08032700;5.40923460;2023-06-22T10:35:26;29.10;52.90
6536;DHT22;34330;52.08032700;5.40923460;2023-06-22T10:37:55;29.10;53.20
6536;DHT22;34330;52.08032700;5.40923460;2023-06-22T10:40:23;29.00;53.00
6536;DHT22;34330;52.08032700;5.40923460;2023-06-22T10:42:51;29.00;52.60
6536;DHT22;34330;52.08032700;5.40923460;2023-06-22T10:45:19;29.00;52.40
6536;DHT22;34330;52.08032700;5.40923460;2023-06-22T10:47:48;28.90;52.60
6536;DHT22;34330;52.08032700;5.40923460;2023-06-22T10:50:18;28.90;52.80
6536;DHT22;34330;52.08032700;5.40923460;2023-06-22T10:52:47;28.90;52.70
6536;DHT22;34330;52.08032700;5.40923460;2023-06-22T10:55:18;28.90;52.60
6536;DHT22;34330;52.08032700;5.40923460;2023-06-22T10:57:46;28.80;53.30
6536;DHT22;34330;52.08032700;5.40923460;2023-06-22T11:00:15;28.80;53.50
6536;DHT22;34330;52.08032700;5.40923460;2023-06-22T11:02:43;28.80;53.80
6536;DHT22;34330;52.08032700;5.40923460;2023-06-22T11:05:12;28.80;54.10
6536;DHT22;34330;52.08032700;5.40923460;2023-06-22T11:07:43;28.80;54.30
6536;DHT22;34330;52.08032700;5.40923460;2023-06-22T11:10:13;28.80;54.30
6536;DHT22;34330;52.08032700;5.40923460;2023-06-22T11:12:41;28.80;54.70
6536;DHT22;34330;52.08032700;5.40923460;2023-06-22T11:15:10;28.90;54.80
6536;DHT22;34330;52.08032700;5.40923460;2023-06-22T11:17:38;28.90;54.90
6536;DHT22;34330;52.08032700;5.40923460;2023-06-22T11:20:07;29.00;55.10
6536;DHT22;34330;52.08032700;5.40923460;2023-06-22T11:22:37;29.00;55.10
6536;DHT22;34330;52.08032700;5.40923460;2023-06-22T11:25:08;29.10;55.10
6536;DHT22;34330;52.08032700;5.40923460;2023-06-22T11:27:38;29.20;55.10
6536;DHT22;34330;52.08032700;5.40923460;2023-06-22T11:30:08;29.20;55.00
6536;DHT22;34330;52.08032700;5.40923460;2023-06-22T11:32:36;29.30;54.80
6536;DHT22;34330;52.08032700;5.40923460;2023-06-22T11:35:04;29.30;55.20
6536;DHT22;34330;52.08032700;5.40923460;2023-06-22T11:37:35;29.40;55.40
6536;DHT22;34330;52.08032700;5.40923460;2023-06-22T11:40:03;29.40;55.50
6536;DHT22;34330;52.08032700;5.40923460;2023-06-22T11:42:36;29.40;55.20
6536;DHT22;34330;52.08032700;5.40923460;2023-06-22T11:45:06;29.50;55.20
6536;DHT22;34330;52.08032700;5.40923460;2023-06-22T11:47:34;29.60;55.50
6536;DHT22;34330;52.08032700;5.40923460;2023-06-22T11:50:04;29.60;55.50
6536;DHT22;34330;52.08032700;5.40923460;2023-06-22T11:52:33;29.60;55.30
6536;DHT22;34330;52.08032700;5.40923460;2023-06-22T11:55:02;29.60;55.20
6536;DHT22;34330;52.08032700;5.40923460;2023-06-22T11:57:33;29.60;54.80
6536;DHT22;34330;52.08032700;5.40923460;2023-06-22T12:00:03;29.50;54.50
6536;DHT22;34330;52.08032700;5.40923460;2023-06-22T12:02:40;29.60;54.90
6536;DHT22;34330;52.08032700;5.40923460;2023-06-22T12:05:08;29.60;55.10
6536;DHT22;34330;52.08032700;5.40923460;2023-06-22T12:07:39;29.70;54.80
6536;DHT22;34330;52.08032700;5.40923460;2023-06-22T12:10:08;29.70;54.80
6536;DHT22;34330;52.08032700;5.40923460;2023-06-22T12:12:36;29.70;54.30
6536;DHT22;34330;52.08032700;5.40923460;2023-06-22T12:15:06;29.70;54.50
6536;DHT22;34330;52.08032700;5.40923460;2023-06-22T12:17:34;29.70;55.70
6536;DHT22;34330;52.08032700;5.40923460;2023-06-22T12:20:03;29.70;55.60
6536;DHT22;34330;52.08032700;5.40923460;2023-06-22T12:22:32;29.70;57.30
6536;DHT22;34330;52.08032700;5.40923460;2023-06-22T12:25:00;29.60;58.10
6536;DHT22;34330;52.08032700;5.40923460;2023-06-22T12:27:28;29.50;58.70
6536;DHT22;34330;52.08032700;5.40923460;2023-06-22T12:29:57;29.50;58.90
6536;DHT22;34330;52.08032700;5.40923460;2023-06-22T12:32:26;29.50;59.10
6536;DHT22;34330;52.08032700;5.40923460;2023-06-22T12:34:54;29.30;60.20
6536;DHT22;34330;52.08032700;5.40923460;2023-06-22T12:37:23;29.50;61.30
6536;DHT22;34330;52.08032700;5.40923460;2023-06-22T12:39:51;29.10;61.30
6536;DHT22;34330;52.08032700;5.40923460;2023-06-22T12:42:19;29.00;61.60
6536;DHT22;34330;52.08032700;5.40923460;2023-06-22T12:44:50;29.00;62.40
6536;DHT22;34330;52.08032700;5.40923460;2023-06-22T12:47:21;28.90;64.30
6536;DHT22;34330;52.08032700;5.40923460;2023-06-22T12:49:50;28.80;62.90
6536;DHT22;34330;52.08032700;5.40923460;2023-06-22T12:52:18;28.70;63.80
6536;DHT22;34330;52.08032700;5.40923460;2023-06-22T12:54:46;28.70;63.00
6536;DHT22;34330;52.08032700;5.40923460;2023-06-22T12:57:21;28.50;62.80
6536;DHT22;34330;52.08032700;5.40923460;2023-06-22T12:59:50;28.40;63.80
6536;DHT22;34330;52.08032700;5.40923460;2023-06-22T13:02:18;28.30;63.90
6536;DHT22;34330;52.08032700;5.40923460;2023-06-22T13:04:46;28.20;64.20
6536;DHT22;34330;52.08032700;5.40923460;2023-06-22T13:07:15;28.10;64.90
6536;DHT22;34330;52.08032700;5.40923460;2023-06-22T13:09:49;28.00;65.20
6536;DHT22;34330;52.08032700;5.40923460;2023-06-22T13:12:19;27.90;65.60
6536;DHT22;34330;52.08032700;5.40923460;2023-06-22T13:14:48;27.80;66.30
6536;DHT22;34330;52.08032700;5.40923460;2023-06-22T13:17:16;27.70;66.50
6536;DHT22;34330;52.08032700;5.40923460;2023-06-22T13:19:44;27.50;69.60
6536;DHT22;34330;52.08032700;5.40923460;2023-06-22T13:22:30;27.40;69.20
6536;DHT22;34330;52.08032700;5.40923460;2023-06-22T13:25:00;27.30;71.00
6536;DHT22;34330;52.08032700;5.40923460;2023-06-22T13:27:29;27.30;71.90
6536;DHT22;34330;52.08032700;5.40923460;2023-06-22T13:29:57;27.30;70.50
6536;DHT22;34330;52.08032700;5.40923460;2023-06-22T13:32:25;27.40;70.30
6536;DHT22;34330;52.08032700;5.40923460;2023-06-22T13:34:54;27.40;71.10
6536;DHT22;34330;52.08032700;5.40923460;2023-06-22T13:37:22;27.40;70.40
6536;DHT22;34330;52.08032700;5.40923460;2023-06-22T13:39:51;27.40;70.40
6536;DHT22;34330;52.08032700;5.40923460;2023-06-22T13:42:19;27.40;69.50
6536;DHT22;34330;52.08032700;5.40923460;2023-06-22T13:44:48;27.40;70.10